Time;durP1;ratioP1;P1;durP2;ratioP2;P2;SDS_P1;SDS_P2;PMS_P1;PMS_P2;Temp;Humidity;BMP_temperature;BMP_pressure;BME280_temperature;BME280_humidity;BME280_pressure;Samples;Min_cycle;Max_cycle;Signal;HPM_P1;HPM_P2
2023/11/27 00:01:47;;;;;;;3.83;2.73;;;;;;;2.79;100.00;97895.81;5052930;28;20732;-77
2023/11/27 00:04:13;;;;;;;4.47;3.17;;;;;;;2.79;100.00;97895.81;5052887;28;20214;-77
2023/11/27 00:06:40;;;;;;;5.30;3.33;;;;;;;2.75;100.00;97894.25;5052880;28;20215;-78
2023/11/27 00:09:06;;;;;;;4.10;3.13;;;;;;;2.73;100.00;97890.88;5053572;28;20210;-80
2023/11/27 00:11:34;;;;;;;3.93;3.20;;;;;;;2.70;100.00;97885.75;5052983;28;20260;-80
2023/11/27 00:14:01;;;;;;;3.97;2.87;;;;;;;2.70;100.00;97880.53;5052563;28;20564;-79
2023/11/27 00:16:28;;;;;;;4.13;3.40;;;;;;;2.75;100.00;97878.59;5052595;28;20696;-78
2023/11/27 00:18:54;;;;;;;4.10;3.60;;;;;;;2.76;100.00;97872.44;5053332;28;20210;-80
2023/11/27 00:21:21;;;;;;;4.73;3.37;;;;;;;2.74;100.00;97873.44;5053303;28;20233;-78
2023/11/27 00:23:47;;;;;;;4.33;3.50;;;;;;;2.73;100.00;97869.13;5052708;28;20563;-80
2023/11/27 00:26:14;;;;;;;4.73;3.53;;;;;;;2.66;100.00;97868.56;5052783;28;20201;-78
2023/11/27 00:28:50;;;;;;;5.70;3.70;;;;;;;2.67;100.00;97859.81;5052702;28;20213;-78
2023/11/27 00:31:24;;;;;;;4.20;2.90;;;;;;;2.69;100.00;97857.16;5052567;28;20714;-78
2023/11/27 00:33:51;;;;;;;6.03;3.50;;;;;;;2.70;100.00;97853.63;5052742;28;20240;-80
2023/11/27 00:36:18;;;;;;;4.60;3.17;;;;;;;2.71;100.00;97855.31;5052664;28;20247;-77
2023/11/27 00:38:44;;;;;;;4.90;3.33;;;;;;;2.69;100.00;97842.31;5052660;28;20286;-78
2023/11/27 00:41:14;;;;;;;4.37;3.37;;;;;;;2.70;100.00;97844.00;5053094;28;20242;-78
2023/11/27 00:43:40;;;;;;;6.37;3.90;;;;;;;2.70;100.00;97844.00;5052165;28;20258;-78
2023/11/27 00:46:09;;;;;;;3.83;3.30;;;;;;;2.77;100.00;97840.25;5053093;28;20209;-78
2023/11/27 00:48:36;;;;;;;4.27;3.40;;;;;;;2.72;100.00;97830.91;5056677;28;20217;-78
2023/11/27 00:51:03;;;;;;;4.13;3.53;;;;;;;2.73;100.00;97828.25;5066335;28;20232;-79
2023/11/27 00:53:30;;;;;;;4.23;3.10;;;;;;;2.73;100.00;97820.41;5064957;28;20298;-79
2023/11/27 00:55:56;;;;;;;3.33;2.93;;;;;;;2.69;100.00;97813.63;5064107;28;20251;-79
2023/11/27 00:58:22;;;;;;;5.20;2.97;;;;;;;2.68;100.00;97816.28;5063015;28;20217;-79
2023/11/27 01:00:49;;;;;;;5.23;3.30;;;;;;;2.67;100.00;97812.84;5053443;28;20216;-77
2023/11/27 01:03:17;;;;;;;3.70;3.10;;;;;;;2.70;100.00;97815.31;5051552;28;20206;-79
2023/11/27 01:05:44;;;;;;;5.03;3.10;;;;;;;2.64;100.00;97812.97;5051197;28;20861;-77
2023/11/27 01:08:12;;;;;;;3.77;3.27;;;;;;;2.61;100.00;97815.72;5051579;28;20216;-79
2023/11/27 01:10:39;;;;;;;4.37;3.30;;;;;;;2.61;100.00;97796.59;5051462;28;20217;-79
2023/11/27 01:13:05;;;;;;;3.63;2.77;;;;;;;2.61;100.00;97799.22;5051601;28;20215;-78
2023/11/27 01:15:32;;;;;;;5.37;3.23;;;;;;;2.61;100.00;97791.38;5050960;28;20215;-78
2023/11/27 01:17:58;;;;;;;4.60;3.33;;;;;;;2.57;100.00;97784.63;5051340;28;20236;-78
2023/11/27 01:20:26;;;;;;;3.30;2.90;;;;;;;2.56;100.00;97778.53;5051276;28;20220;-78
2023/11/27 01:22:53;;;;;;;4.63;3.60;;;;;;;2.59;100.00;97778.44;5051052;28;20236;-78
2023/11/27 01:25:21;;;;;;;5.37;3.57;;;;;;;2.64;100.00;97779.06;5050943;28;20210;-78
2023/11/27 01:27:47;;;;;;;4.90;3.53;;;;;;;2.60;100.00;97774.91;5050058;28;20291;-78
2023/11/27 01:30:17;;;;;;;4.03;3.07;;;;;;;2.55;100.00;97771.63;5051484;28;20208;-77
2023/11/27 01:32:43;;;;;;;3.93;3.20;;;;;;;2.62;100.00;97772.22;5051036;28;20315;-78
2023/11/27 01:35:10;;;;;;;3.80;2.83;;;;;;;2.62;100.00;97762.63;5050810;28;20223;-78
2023/11/27 01:37:38;;;;;;;4.73;3.40;;;;;;;2.61;100.00;97745.28;5052012;28;20242;-77
2023/11/27 01:40:05;;;;;;;4.07;3.07;;;;;;;2.58;100.00;97752.41;5053275;28;20214;-77
2023/11/27 01:42:31;;;;;;;4.10;3.10;;;;;;;2.55;100.00;97747.31;5051792;28;20248;-77
2023/11/27 01:44:58;;;;;;;4.93;3.20;;;;;;;2.56;100.00;97736.81;5050587;28;20220;-78
2023/11/27 01:47:25;;;;;;;5.00;3.20;;;;;;;2.60;100.00;97727.09;5052762;28;20213;-78
2023/11/27 01:49:51;;;;;;;3.83;2.97;;;;;;;2.62;100.00;97720.91;5053070;28;20299;-78
2023/11/27 01:52:19;;;;;;;4.53;2.80;;;;;;;2.62;100.00;97720.91;5054410;28;20228;-78
2023/11/27 01:54:47;;;;;;;5.70;3.17;;;;;;;2.61;100.00;97719.22;5056358;28;20583;-78
2023/11/27 01:57:15;;;;;;;3.43;2.50;;;;;;;2.64;100.00;97715.63;5056685;28;20327;-78
2023/11/27 01:59:43;;;;;;;4.53;3.20;;;;;;;2.66;100.00;97714.63;5055766;28;20209;-78
2023/11/27 02:02:11;;;;;;;4.27;3.13;;;;;;;2.68;100.00;97710.19;5055945;28;20621;-78
2023/11/27 02:04:37;;;;;;;4.63;2.80;;;;;;;2.63;100.00;97709.53;5055925;28;20227;-78
2023/11/27 02:07:04;;;;;;;2.97;2.60;;;;;;;2.68;100.00;97704.97;5056235;28;20210;-78
2023/11/27 02:09:30;;;;;;;3.53;2.43;;;;;;;2.68;100.00;97704.97;5056127;28;20220;-78
2023/11/27 02:11:58;;;;;;;4.27;3.00;;;;;;;2.73;100.00;97705.63;5056359;28;20234;-78
2023/11/27 02:14:26;;;;;;;2.83;2.27;;;;;;;2.76;100.00;97694.19;5055446;28;20212;-77
2023/11/27 02:16:52;;;;;;;4.60;2.70;;;;;;;2.77;100.00;97688.91;5055837;28;20233;-78
2023/11/27 02:19:19;;;;;;;4.10;2.93;;;;;;;2.82;100.00;97688.69;5056108;28;20255;-78
2023/11/27 02:21:46;;;;;;;3.77;2.80;;;;;;;2.93;100.00;97679.44;5056045;28;20228;-78
2023/11/27 02:24:13;;;;;;;2.90;2.57;;;;;;;2.91;100.00;97675.22;5055180;28;20266;-78
2023/11/27 02:26:40;;;;;;;3.20;2.43;;;;;;;2.93;100.00;97676.00;5055990;28;20684;-78
2023/11/27 02:29:06;;;;;;;3.70;2.53;;;;;;;2.92;100.00;97682.97;5055423;28;20236;-77
2023/11/27 02:31:33;;;;;;;3.03;2.30;;;;;;;2.90;100.00;97674.38;5053923;28;20228;-77
2023/11/27 02:34:00;;;;;;;3.80;2.80;;;;;;;2.88;100.00;97675.38;5053375;28;20215;-78
2023/11/27 02:36:27;;;;;;;3.63;2.70;;;;;;;2.86;100.00;97674.56;5054342;28;20232;-77
2023/11/27 02:38:54;;;;;;;4.00;2.70;;;;;;;2.81;100.00;97669.56;5054142;28;20266;-78
2023/11/27 02:41:24;;;;;;;3.57;2.70;;;;;;;2.86;100.00;97677.19;5053813;28;20325;-77
2023/11/27 02:43:50;;;;;;;4.07;2.80;;;;;;;2.85;100.00;97673.75;5053166;28;20282;-78
2023/11/27 02:46:16;;;;;;;3.23;2.80;;;;;;;2.83;100.00;97672.13;5053919;28;20208;-78
2023/11/27 02:48:43;;;;;;;2.80;2.37;;;;;;;2.85;100.00;97665.91;5053810;28;20221;-78
2023/11/27 02:51:09;;;;;;;4.27;2.37;;;;;;;2.86;100.00;97666.75;5053931;28;20231;-78
2023/11/27 02:53:36;;;;;;;3.27;2.50;;;;;;;2.80;100.00;97667.88;5052778;28;20212;-77
2023/11/27 02:56:03;;;;;;;3.47;2.33;;;;;;;2.83;100.00;97667.75;5053630;28;20208;-78
2023/11/27 02:58:32;;;;;;;5.33;2.63;;;;;;;2.85;100.00;97662.44;5053571;28;20236;-78
2023/11/27 03:00:59;;;;;;;3.63;2.47;;;;;;;2.82;100.00;97663.44;5053614;28;20318;-77
2023/11/27 03:03:25;;;;;;;3.23;2.43;;;;;;;2.85;100.00;97655.47;5053117;28;20217;-78
2023/11/27 03:05:52;;;;;;;2.90;2.00;;;;;;;2.89;100.00;97657.00;5054479;28;20239;-78
2023/11/27 03:08:18;;;;;;;3.67;2.57;;;;;;;2.90;100.00;97658.72;5054950;28;20211;-78
2023/11/27 03:10:45;;;;;;;5.23;2.30;;;;;;;2.89;100.00;97656.19;5055367;28;20232;-80
2023/11/27 03:13:11;;;;;;;4.97;2.17;;;;;;;2.86;100.00;97646.72;5054952;28;20208;-79
2023/11/27 03:15:39;;;;;;;2.83;1.90;;;;;;;2.94;100.00;97649.00;5054081;28;20231;-77
2023/11/27 03:18:05;;;;;;;3.03;2.03;;;;;;;3.00;100.00;97640.88;5054108;28;20243;-79
2023/11/27 03:20:32;;;;;;;2.33;1.90;;;;;;;2.93;100.00;97637.69;5053848;28;20219;-77
2023/11/27 03:22:58;;;;;;;2.83;2.03;;;;;;;2.97;100.00;97638.38;5054114;28;20235;-77
2023/11/27 03:25:25;;;;;;;3.47;2.20;;;;;;;2.95;100.00;97624.56;5053677;28;20659;-79
2023/11/27 03:27:51;;;;;;;2.40;2.20;;;;;;;2.92;100.00;97624.69;5054050;28;20208;-78
2023/11/27 03:30:19;;;;;;;3.83;2.30;;;;;;;2.90;100.00;97627.41;5054554;28;20216;-78
2023/11/27 03:32:47;;;;;;;2.67;2.07;;;;;;;2.88;100.00;97618.78;5054319;28;20229;-78
2023/11/27 03:35:12;;;;;;;4.17;2.13;;;;;;;2.88;100.00;97626.63;5053677;28;20579;-78
2023/11/27 03:37:39;;;;;;;2.67;2.00;;;;;;;2.89;100.00;97628.31;5053957;28;20225;-78
2023/11/27 03:40:07;;;;;;;2.53;2.00;;;;;;;2.91;100.00;97625.63;5070469;28;20648;-78
2023/11/27 03:42:33;;;;;;;2.70;1.80;;;;;;;2.89;100.00;97620.47;5077328;28;20238;-78
2023/11/27 03:45:01;;;;;;;3.30;2.03;;;;;;;2.84;100.00;97627.69;5077674;28;20193;-78
2023/11/27 03:47:27;;;;;;;3.73;2.10;;;;;;;2.89;100.00;97623.09;5078176;28;20226;-79
2023/11/27 03:49:55;;;;;;;4.43;2.23;;;;;;;2.87;100.00;97622.31;5078243;28;20193;-79
2023/11/27 03:52:23;;;;;;;3.70;2.10;;;;;;;2.89;100.00;97624.88;5074330;28;20239;-79
2023/11/27 03:54:50;;;;;;;2.73;2.30;;;;;;;2.86;100.00;97623.25;5077733;28;20197;-79
2023/11/27 03:57:16;;;;;;;3.13;2.10;;;;;;;2.83;100.00;97615.56;5078313;28;20227;-78
2023/11/27 03:59:43;;;;;;;2.77;1.87;;;;;;;2.82;100.00;97608.63;5077693;28;20211;-78
2023/11/27 04:02:10;;;;;;;5.30;2.60;;;;;;;2.86;100.00;97599.75;5077676;28;20233;-78
2023/11/27 04:04:37;;;;;;;4.97;2.27;;;;;;;2.86;100.00;97599.75;5077949;28;20212;-78
2023/11/27 04:07:05;;;;;;;3.33;2.50;;;;;;;2.88;100.00;97594.47;5078526;28;20204;-78
2023/11/27 04:09:31;;;;;;;3.17;2.53;;;;;;;2.86;100.00;97597.16;5077319;28;20665;-78
2023/11/27 04:11:58;;;;;;;2.93;2.27;;;;;;;2.80;100.00;97587.00;5074607;28;20228;-79
2023/11/27 04:14:25;;;;;;;2.70;2.27;;;;;;;2.80;100.00;97592.22;5073420;28;20204;-79
2023/11/27 04:16:51;;;;;;;3.47;2.37;;;;;;;2.74;100.00;97592.50;5070438;28;20208;-79
2023/11/27 04:19:18;;;;;;;2.47;2.00;;;;;;;2.67;100.00;97587.63;5075942;28;20200;-78
2023/11/27 04:21:44;;;;;;;2.90;2.00;;;;;;;2.61;100.00;97588.78;5077950;28;20278;-78
2023/11/27 04:24:12;;;;;;;2.40;2.17;;;;;;;2.57;100.00;97586.41;5077201;28;20200;-78
2023/11/27 04:26:39;;;;;;;2.27;1.80;;;;;;;2.52;100.00;97585.75;5078092;28;20256;-78
2023/11/27 04:29:05;;;;;;;3.50;2.50;;;;;;;2.47;100.00;97585.97;5077903;28;20203;-78
2023/11/27 04:31:32;;;;;;;3.37;2.53;;;;;;;2.47;100.00;97578.16;5065619;28;20290;-78
2023/11/27 04:33:58;;;;;;;3.80;2.30;;;;;;;2.46;100.00;97579.03;5063749;28;20550;-78
2023/11/27 04:36:26;;;;;;;2.63;2.10;;;;;;;2.61;100.00;97575.75;5069260;28;20744;-78
2023/11/27 04:38:52;;;;;;;3.53;2.70;;;;;;;2.58;100.00;97569.81;5077537;28;20216;-78
2023/11/27 04:41:20;;;;;;;2.73;2.30;;;;;;;2.61;100.00;97560.09;5077996;28;20212;-78
2023/11/27 04:43:46;;;;;;;4.27;2.50;;;;;;;2.65;100.00;97564.25;5077290;28;20341;-78
2023/11/27 04:46:13;;;;;;;3.30;2.40;;;;;;;2.54;100.00;97566.50;5078109;28;20194;-78
2023/11/27 04:48:39;;;;;;;2.43;2.20;;;;;;;2.46;100.00;97568.59;5077973;28;20196;-78
2023/11/27 04:51:07;;;;;;;5.23;2.50;;;;;;;2.37;100.00;97563.81;5077926;28;20230;-78
2023/11/27 04:53:34;;;;;;;3.50;2.23;;;;;;;2.33;100.00;97557.06;5077439;28;20197;-78
2023/11/27 04:56:01;;;;;;;3.00;2.17;;;;;;;2.37;100.00;97562.97;5077849;28;20192;-78
2023/11/27 04:58:29;;;;;;;4.83;2.20;;;;;;;2.32;100.00;97555.38;5076957;28;20235;-78
2023/11/27 05:00:55;;;;;;;3.20;2.40;;;;;;;2.31;100.00;97547.59;5077691;28;20188;-78
2023/11/27 05:03:22;;;;;;;2.83;2.33;;;;;;;2.32;100.00;97552.75;5077567;28;20207;-78
2023/11/27 05:05:48;;;;;;;4.77;2.40;;;;;;;2.28;100.00;97540.78;5077160;28;20192;-78
2023/11/27 05:08:15;;;;;;;2.47;2.27;;;;;;;2.31;100.00;97538.03;5077538;28;20277;-79
2023/11/27 05:10:42;;;;;;;2.53;2.27;;;;;;;2.30;100.00;97535.50;5077254;28;20187;-78
2023/11/27 05:13:08;;;;;;;4.43;2.17;;;;;;;2.28;100.00;97526.91;5077161;28;20192;-78
2023/11/27 05:15:38;;;;;;;3.40;2.33;;;;;;;2.32;100.00;97523.25;5076687;28;20199;-78
2023/11/27 05:18:05;;;;;;;4.60;2.30;;;;;;;2.30;100.00;97518.09;5077016;28;20227;-78
2023/11/27 05:20:32;;;;;;;2.27;1.87;;;;;;;2.26;100.00;97521.75;5077111;28;20208;-78
2023/11/27 05:23:00;;;;;;;2.47;2.27;;;;;;;2.21;100.00;97509.88;5076785;28;20204;-78
2023/11/27 05:25:27;;;;;;;2.90;2.20;;;;;;;2.13;100.00;97512.81;5077383;28;20197;-78
2023/11/27 05:27:54;;;;;;;2.50;2.10;;;;;;;2.11;100.00;97509.44;5080491;28;20184;-78
2023/11/27 05:30:21;;;;;;;2.30;2.10;;;;;;;2.07;100.00;97513.09;5080664;28;20194;-78
2023/11/27 05:32:49;;;;;;;2.50;2.20;;;;;;;2.08;100.00;97508.75;5080640;28;20247;-78
2023/11/27 05:35:16;;;;;;;2.43;2.07;;;;;;;2.05;100.00;97504.50;5079912;28;20199;-79
2023/11/27 05:37:43;;;;;;;4.37;2.50;;;;;;;2.09;100.00;97506.03;5080324;28;20286;-78
2023/11/27 05:40:10;;;;;;;3.93;2.20;;;;;;;2.10;100.00;97497.31;5080207;28;20193;-78
2023/11/27 05:42:39;;;;;;;5.37;2.70;;;;;;;2.14;100.00;97492.81;5079615;28;20228;-79
2023/11/27 05:45:10;;;;;;;2.30;2.10;;;;;;;2.17;100.00;97485.69;5079957;28;20203;-78
2023/11/27 05:47:37;;;;;;;3.60;2.40;;;;;;;2.19;100.00;97470.81;5080112;28;20192;-78
2023/11/27 05:50:06;;;;;;;2.80;2.27;;;;;;;2.21;100.00;97484.63;5080315;28;20192;-78
2023/11/27 05:52:32;;;;;;;3.90;2.43;;;;;;;2.23;100.00;97479.34;5080010;28;20218;-78
2023/11/27 05:54:59;;;;;;;2.73;2.30;;;;;;;2.25;100.00;97480.97;5079750;28;20196;-78
2023/11/27 05:57:25;;;;;;;3.67;2.27;;;;;;;2.31;100.00;97480.69;5074312;28;20248;-78
2023/11/27 05:59:53;;;;;;;2.73;1.97;;;;;;;2.37;100.00;97477.78;5056937;28;20208;-78
2023/11/27 06:02:20;;;;;;;2.40;2.20;;;;;;;2.39;100.00;97473.31;5056054;28;20232;-78
2023/11/27 06:04:46;;;;;;;3.87;2.33;;;;;;;2.43;100.00;97467.06;5055128;28;20219;-77
2023/11/27 06:07:14;;;;;;;2.30;2.10;;;;;;;2.47;100.00;97465.16;5055927;28;20556;-78
2023/11/27 06:09:41;;;;;;;2.90;2.20;;;;;;;2.40;100.00;97461.97;5055414;28;20222;-77
2023/11/27 06:12:10;;;;;;;2.50;2.27;;;;;;;2.40;100.00;97469.81;5055421;28;20229;-77
2023/11/27 06:14:36;;;;;;;2.83;2.20;;;;;;;2.38;100.00;97474.25;5054867;28;20208;-78
2023/11/27 06:17:03;;;;;;;2.77;2.13;;;;;;;2.38;100.00;97463.81;5055234;28;20334;-78
2023/11/27 06:19:29;;;;;;;3.70;2.20;;;;;;;2.31;100.00;97454.59;5054952;28;20232;-78
2023/11/27 06:21:56;;;;;;;2.50;2.00;;;;;;;2.29;100.00;97453.84;5054968;28;20247;-78
2023/11/27 06:24:23;;;;;;;3.80;1.97;;;;;;;2.25;100.00;97454.91;5054168;28;20212;-78
2023/11/27 06:26:50;;;;;;;3.50;2.10;;;;;;;2.23;100.00;97455.88;5054734;28;20208;-78
2023/11/27 06:29:17;;;;;;;4.47;2.10;;;;;;;2.22;100.00;97455.06;5054651;28;20204;-78
2023/11/27 06:31:43;;;;;;;2.53;2.30;;;;;;;2.19;100.00;97442.16;5054786;28;20228;-78
2023/11/27 06:34:10;;;;;;;3.00;2.20;;;;;;;2.20;100.00;97446.44;5055178;28;20216;-78
2023/11/27 06:36:36;;;;;;;3.30;2.27;;;;;;;2.19;100.00;97443.91;5054220;28;20215;-78
2023/11/27 06:39:03;;;;;;;2.50;1.67;;;;;;;2.22;100.00;97439.41;5053737;28;20230;-78
2023/11/27 06:41:33;;;;;;;2.30;2.10;;;;;;;2.22;100.00;97439.41;5054261;28;20227;-78
2023/11/27 06:44:02;;;;;;;2.37;1.90;;;;;;;2.24;100.00;97445.38;5053524;28;20684;-78
2023/11/27 06:46:29;;;;;;;1.90;1.60;;;;;;;2.22;100.00;97433.34;5054363;28;20207;-78
2023/11/27 06:48:55;;;;;;;2.00;1.80;;;;;;;2.23;100.00;97425.47;5054118;28;20664;-78
2023/11/27 06:51:22;;;;;;;2.23;2.03;;;;;;;2.27;100.00;97426.97;5053970;28;20610;-78
2023/11/27 06:53:49;;;;;;;4.83;1.70;;;;;;;2.27;100.00;97426.16;5053323;28;20215;-78
2023/11/27 06:56:14;;;;;;;2.70;1.90;;;;;;;2.29;100.00;97425.16;5054153;28;20212;-77
2023/11/27 06:58:42;;;;;;;2.33;2.10;;;;;;;2.34;100.00;97422.34;5053856;28;20287;-77
2023/11/27 07:01:10;;;;;;;5.93;2.00;;;;;;;2.34;100.00;97415.34;5053859;28;20756;-77
2023/11/27 07:03:37;;;;;;;3.60;1.77;;;;;;;2.35;100.00;97414.44;5053535;28;20205;-77
2023/11/27 07:06:04;;;;;;;3.03;2.00;;;;;;;2.37;100.00;97415.22;5053975;28;20204;-77
2023/11/27 07:08:31;;;;;;;2.17;1.77;;;;;;;2.37;100.00;97417.81;5054205;28;20204;-79
2023/11/27 07:10:57;;;;;;;1.87;1.77;;;;;;;2.36;100.00;97412.66;5053593;28;20345;-77
2023/11/27 07:13:25;;;;;;;2.97;2.23;;;;;;;2.37;100.00;97411.75;5053948;28;20568;-78
2023/11/27 07:15:53;;;;;;;2.77;2.20;;;;;;;2.38;100.00;97403.03;5053421;28;20212;-77
2023/11/27 07:18:19;;;;;;;2.10;1.90;;;;;;;2.37;100.00;97403.91;5053345;28;20242;-78
2023/11/27 07:20:45;;;;;;;3.33;2.07;;;;;;;2.38;100.00;97401.25;5053663;28;20230;-79
2023/11/27 07:23:12;;;;;;;3.53;2.23;;;;;;;2.39;100.00;97402.94;5053480;28;20216;-79
2023/11/27 07:25:39;;;;;;;3.83;1.73;;;;;;;2.45;100.00;97400.03;5053019;28;20214;-77
2023/11/27 07:28:06;;;;;;;3.57;2.20;;;;;;;2.47;100.00;97398.22;5053595;28;20210;-77
2023/11/27 07:30:32;;;;;;;2.57;2.30;;;;;;;2.53;100.00;97387.47;5053503;28;20216;-78
2023/11/27 07:33:02;;;;;;;3.00;2.10;;;;;;;2.55;100.00;97380.41;5053664;28;20235;-78
2023/11/27 07:35:28;;;;;;;3.50;2.00;;;;;;;2.62;100.00;97376.56;5052884;28;20243;-78
2023/11/27 07:37:55;;;;;;;4.33;2.03;;;;;;;2.66;100.00;97372.03;5053369;28;20205;-78
2023/11/27 07:40:22;;;;;;;2.83;2.10;;;;;;;2.70;100.00;97363.97;5053561;28;20212;-78
2023/11/27 07:42:48;;;;;;;2.93;2.07;;;;;;;2.72;100.00;97366.53;5052896;28;20236;-78
2023/11/27 07:45:15;;;;;;;3.03;2.40;;;;;;;2.80;100.00;97361.75;5052630;28;20303;-79
2023/11/27 07:47:41;;;;;;;2.17;1.70;;;;;;;2.82;100.00;97349.50;5052979;28;20209;-78
2023/11/27 07:50:10;;;;;;;2.30;1.90;;;;;;;2.84;100.00;97351.09;5051784;28;20587;-78
2023/11/27 07:52:37;;;;;;;3.22;2.50;;;;;;;2.91;100.00;97347.25;5051267;28;20443;-78
2023/11/27 07:55:04;;;;;;;4.10;2.23;;;;;;;2.92;100.00;97343.72;5051486;28;20212;-80
2023/11/27 07:57:32;;;;;;;3.10;2.30;;;;;;;2.95;100.00;97335.72;5051469;28;20209;-79
2023/11/27 07:59:59;;;;;;;3.13;2.30;;;;;;;3.03;100.00;97340.53;5052326;28;20237;-78
2023/11/27 08:02:25;;;;;;;2.40;2.07;;;;;;;3.04;100.00;97331.78;5051991;28;20227;-78
2023/11/27 08:04:52;;;;;;;5.00;3.03;;;;;;;3.06;100.00;97328.16;5050761;28;20242;-79
2023/11/27 08:07:20;;;;;;;2.77;2.20;;;;;;;3.09;100.00;97325.41;5052101;28;20652;-78
2023/11/27 08:09:48;;;;;;;4.50;2.40;;;;;;;3.12;100.00;97325.25;5052388;28;20211;-78
2023/11/27 08:12:15;;;;;;;5.10;2.57;;;;;;;3.15;100.00;97322.50;5051346;28;20225;-78
2023/11/27 08:14:42;;;;;;;4.23;2.83;;;;;;;3.21;100.00;97319.56;5051316;28;20680;-78
2023/11/27 08:17:09;;;;;;;4.70;3.30;;;;;;;3.24;100.00;97318.56;5051820;28;20208;-79
2023/11/27 08:19:35;;;;;;;6.10;3.30;;;;;;;3.26;100.00;97312.31;5051295;28;20235;-79
2023/11/27 08:22:04;;;;;;;5.17;3.00;;;;;;;3.31;100.00;97307.66;5051795;28;20225;-78
2023/11/27 08:24:33;;;;;;;3.80;3.07;;;;;;;3.34;100.00;97309.28;5051843;28;20210;-78
2023/11/27 08:27:01;;;;;;;4.80;3.20;;;;;;;3.34;100.00;97304.91;5045203;28;20217;-81
2023/11/27 08:29:28;;;;;;;5.70;3.43;;;;;;;3.40;100.00;97308.94;5050207;28;20205;-77
2023/11/27 08:31:58;;;;;;;4.23;2.60;;;;;;;3.45;100.00;97307.78;5052214;28;20228;-77
2023/11/27 08:34:25;;;;;;;4.07;2.53;;;;;;;3.48;100.00;97297.16;5051498;28;20209;-77
2023/11/27 08:36:51;;;;;;;5.10;3.20;;;;;;;3.47;100.00;97290.25;5052309;28;20209;-77
2023/11/27 08:39:18;;;;;;;4.70;2.97;;;;;;;3.54;100.00;97294.22;5051735;28;20239;-77
2023/11/27 08:41:46;;;;;;;4.37;2.70;;;;;;;3.62;100.00;97294.63;5049543;28;20654;-77
2023/11/27 08:44:12;;;;;;;4.33;2.60;;;;;;;3.67;100.00;97297.00;5038656;28;20212;-78
2023/11/27 08:46:39;;;;;;;5.03;2.60;;;;;;;3.77;100.00;97288.56;5044699;28;20205;-78
2023/11/27 08:49:05;;;;;;;2.97;2.50;;;;;;;3.81;100.00;97277.03;5033084;28;20203;-78
2023/11/27 08:51:34;;;;;;;3.87;2.50;;;;;;;3.87;100.00;97268.84;5036005;28;20320;-78
2023/11/27 08:54:00;;;;;;;2.83;2.30;;;;;;;3.87;100.00;97254.94;5032474;28;20213;-79
2023/11/27 08:56:27;;;;;;;5.00;2.87;;;;;;;3.90;100.00;97258.22;5032760;28;20217;-79
2023/11/27 08:59:00;;;;;;;3.70;2.57;;;;;;;3.93;100.00;97260.66;5032229;28;20221;-81
2023/11/27 09:01:27;;;;;;;5.73;2.63;;;;;;;3.95;100.00;97256.19;5031836;28;20255;-78
2023/11/27 09:03:53;;;;;;;5.17;2.90;;;;;;;4.04;100.00;97247.78;5038216;28;20217;-78
2023/11/27 09:06:20;;;;;;;3.43;2.40;;;;;;;4.09;100.00;97252.78;5052296;28;20511;-79
2023/11/27 09:08:46;;;;;;;3.83;2.73;;;;;;;4.12;100.00;97248.22;5053168;28;20267;-79
2023/11/27 09:11:13;;;;;;;4.93;2.30;;;;;;;4.16;100.00;97238.44;5049355;28;20233;-79
2023/11/27 09:13:39;;;;;;;3.70;2.13;;;;;;;4.22;100.00;97225.81;5047200;28;20292;-79
2023/11/27 09:16:10;;;;;;;3.40;2.43;;;;;;;4.26;100.00;97227.34;5043872;28;20215;-79
2023/11/27 09:18:37;;;;;;;6.73;2.50;;;;;;;4.31;100.00;97227.91;5049983;28;20214;-78
2023/11/27 09:21:04;;;;;;;2.87;2.07;;;;;;;4.38;100.00;97224.00;5059556;28;20352;-78
2023/11/27 09:23:32;;;;;;;3.40;2.13;;;;;;;4.50;100.00;97218.03;5047662;28;20202;-80
2023/11/27 09:26:00;;;;;;;2.17;1.87;;;;;;;4.55;100.00;97188.97;5053407;28;20231;-78
2023/11/27 09:28:27;;;;;;;3.87;2.00;;;;;;;4.64;100.00;97194.50;5066620;28;20251;-77
2023/11/27 09:30:54;;;;;;;2.67;1.93;;;;;;;4.66;100.00;97187.41;5057096;28;20377;-78
2023/11/27 09:33:22;;;;;;;3.07;2.13;;;;;;;4.74;100.00;97179.06;5048580;28;20220;-78
2023/11/27 09:35:49;;;;;;;2.67;2.07;;;;;;;4.77;100.00;97184.13;5048140;28;20212;-78
2023/11/27 09:38:15;;;;;;;4.23;1.97;;;;;;;4.87;100.00;97186.09;5052293;28;20212;-78
2023/11/27 09:40:42;;;;;;;3.53;2.07;;;;;;;4.93;100.00;97182.25;5044351;28;20592;-78
2023/11/27 09:43:09;;;;;;;3.87;1.77;;;;;;;4.94;100.00;97176.91;5030978;28;20232;-79
2023/11/27 09:45:37;;;;;;;4.47;1.97;;;;;;;5.02;100.00;97169.41;5030468;28;20230;-80
2023/11/27 09:48:07;;;;;;;4.60;2.00;;;;;;;5.07;100.00;97162.13;5031075;28;20604;-81
2023/11/27 09:50:36;;;;;;;6.80;2.07;;;;;;;5.11;100.00;97153.13;5031104;28;20212;-78
2023/11/27 09:53:05;;;;;;;2.63;2.10;;;;;;;5.14;98.62;97131.16;5037992;28;20227;-79
2023/11/27 09:55:35;;;;;;;2.97;2.00;;;;;;;5.18;99.25;97132.63;5050305;28;20249;-80
2023/11/27 09:58:05;;;;;;;3.90;1.90;;;;;;;5.28;99.40;97128.50;5050654;28;20332;-80
2023/11/27 10:00:32;;;;;;;2.80;2.07;;;;;;;5.33;100.00;97124.66;5050404;28;20293;-77
2023/11/27 10:02:59;;;;;;;3.73;2.00;;;;;;;5.43;99.69;97115.25;5050587;28;20228;-77
2023/11/27 10:05:26;;;;;;;2.50;1.73;;;;;;;5.48;99.70;97113.16;5050497;28;20269;-80
2023/11/27 10:07:54;;;;;;;3.17;2.07;;;;;;;5.58;100.00;97110.78;5050912;28;20238;-78
2023/11/27 10:10:26;;;;;;;3.57;2.17;;;;;;;5.56;98.29;97094.34;5051464;28;20202;-78
2023/11/27 10:12:55;;;;;;;3.60;2.20;;;;;;;5.60;98.51;97086.16;5051964;28;20325;-78
2023/11/27 10:15:26;;;;;;;4.57;2.03;;;;;;;5.63;95.54;97064.97;5054244;28;20221;-78
2023/11/27 10:17:53;;;;;;;2.50;1.67;;;;;;;5.66;95.19;97067.41;5054401;28;20654;-78
2023/11/27 10:20:22;;;;;;;3.90;1.70;;;;;;;5.66;94.21;97046.44;5054409;28;20326;-79
2023/11/27 10:22:48;;;;;;;2.67;1.70;;;;;;;5.71;94.68;97044.34;5054802;28;20235;-77
2023/11/27 10:25:17;;;;;;;3.33;2.50;;;;;;;5.72;96.07;97038.16;5053817;28;20227;-77
2023/11/27 10:27:44;;;;;;;4.53;2.40;;;;;;;5.81;96.11;97045.44;5054421;28;20211;-78
2023/11/27 10:30:21;;;;;;;4.73;2.73;;;;;;;5.86;95.47;97047.78;5041498;28;20691;-78
2023/11/27 10:32:48;;;;;;;4.57;2.27;;;;;;;5.80;96.08;97043.75;5033430;28;20251;-78
2023/11/27 10:35:17;;;;;;;2.97;2.37;;;;;;;5.83;93.11;97030.47;5033441;28;20216;-78
2023/11/27 10:37:43;;;;;;;2.87;2.00;;;;;;;5.81;94.20;97029.69;5034018;28;20212;-78
2023/11/27 10:40:13;;;;;;;3.17;2.20;;;;;;;5.83;93.43;97012.09;5033896;28;20239;-78
2023/11/27 10:42:47;;;;;;;2.17;1.80;;;;;;;5.86;92.98;97001.41;5033949;28;20246;-78
2023/11/27 10:45:18;;;;;;;2.33;1.63;;;;;;;5.91;92.20;96994.06;5034300;28;20632;-78
2023/11/27 10:47:46;;;;;;;2.57;1.60;;;;;;;5.86;90.04;96964.69;5034435;28;20267;-78
2023/11/27 10:50:14;;;;;;;3.27;1.50;;;;;;;5.98;88.72;96957.78;5034702;28;20216;-79
2023/11/27 10:52:43;;;;;;;1.50;1.40;;;;;;;6.01;85.55;96941.81;5034413;28;20229;-78
2023/11/27 10:55:13;;;;;;;2.40;1.73;;;;;;;5.98;83.03;96923.69;5034092;28;20212;-78
2023/11/27 10:57:43;;;;;;;1.80;1.50;;;;;;;5.94;81.27;96915.19;5035058;28;20222;-80
2023/11/27 11:00:10;;;;;;;1.57;1.27;;;;;;;6.04;80.68;96903.09;5036099;28;20236;-78
2023/11/27 11:02:37;;;;;;;1.50;1.33;;;;;;;6.00;81.65;96904.28;5036696;28;20234;-80
2023/11/27 11:05:07;;;;;;;2.13;1.30;;;;;;;6.06;80.10;96885.50;5037402;28;20210;-78
2023/11/27 11:07:39;;;;;;;1.23;1.10;;;;;;;6.12;79.42;96877.16;5036318;28;20223;-78
2023/11/27 11:10:10;;;;;;;1.30;1.10;;;;;;;6.18;79.22;96876.72;5037483;28;20211;-80
2023/11/27 11:12:40;;;;;;;3.53;1.50;;;;;;;6.18;78.70;96871.47;5036511;28;20761;-79
2023/11/27 11:15:13;;;;;;;1.20;1.10;;;;;;;6.21;77.09;96855.53;5036173;28;20205;-80
2023/11/27 11:17:47;;;;;;;1.40;1.30;;;;;;;6.24;77.41;96855.28;5037247;28;20212;-80
2023/11/27 11:20:25;;;;;;;1.87;1.17;;;;;;;6.33;77.72;96849.41;5037738;28;20228;-81
2023/11/27 11:23:15;;;;;;;2.70;1.50;;;;;;;6.38;73.11;96812.31;5036305;28;20290;-81
2023/11/27 11:25:48;;;;;;;2.87;1.23;;;;;;;6.32;75.71;96816.25;5036587;28;20205;-79
2023/11/27 11:28:22;;;;;;;2.13;1.30;;;;;;;6.34;75.74;96819.59;5043082;28;20274;-79
2023/11/27 11:31:11;;;;;;;2.17;1.53;;;;;;;6.34;74.88;96809.09;5043668;28;20215;-79
2023/11/27 11:33:37;;;;;;;2.00;1.60;;;;;;;6.32;75.82;96805.75;5042416;28;20598;-80
2023/11/27 11:36:06;;;;;;;2.90;2.00;;;;;;;6.28;75.13;96796.41;5025827;28;20216;-81